Airfield :
LOGIN :

Register | Disclaimer

   EN    FR    IT 

 










Legend :    VFR   Marginal VFR   IFR   Intensive IFR   Very Intensive IFR
Visi :
Ceiling :
>= 8 km
>= 3000ft
5 to 8 km
1000 to 3000 ft
1500m to 5 km
500 to 1000 ft
800 to 1500m
200 to 500 ft
< 800m
< 200 ft
Symbols :   Thunderstorms  Fog  Heavy snow  Heavy precipitations  Wind > 20 kt
SIGMETs :     Misc.  Thunderstorms  Icing  Turbulence  Mountain Waves  Volcanic Ashes






- Airport Elevation : 741 ft
- IATA code : PED


LKPD - Pardubice AB

CURRENT METAR :
  • 171500Z 25003KT CAVOK 11/05 Q1017 RMK BLACK

EXPIRED METARs :
  • 171430Z 26003KT 9999 SCT040 OVC060 12/04 Q1017 RMK BLACK
  • 171400Z 26002KT 9999 SCT040 OVC060 12/04 Q1016 RMK BLACK
  • 171330Z 23005KT 9999 FEW040 BKN070 12/04 Q1016 RMK BLACK
  • 171300Z 22006KT CAVOK 12/04 Q1016 RMK BLACK
  • 171230Z 23006KT CAVOK 12/04 Q1016 RMK BLACK

TAF TAF LKPD
Valid from the 16 at 18:00 until the 17 at 18:00 UTC


161700Z 1618/1718 17016G26KT CAVOK
BECMG 1706/1708 27008KT BKN023
TEMPO 1712/1718 7000 RA BKN014



MET'MAP, your aeronautical weather chart ! - Copyright ORBIFLY December 2007 - Disclaimer

ORBIFLY MET'MAP TEAM :

Programming & Development : Alexandra Zaïnal
Concept & original design : Baudouin d'Aumeries
Assistance for programming : Marc-Olivier Méhu
Technical & hardware support : Manuel Goepfert

Contact : metmap@orbifly.com




SOURCES & CREDITS :

   NOAA